Time;durP1;ratioP1;P1;durP2;ratioP2;P2;SDS_P1;SDS_P2;PMS_P1;PMS_P2;Temp;Humidity;BMP_temperature;BMP_pressure;BME280_temperature;BME280_humidity;BME280_pressure;Samples;Min_cycle;Max_cycle;Signal;HPM_P1;HPM_P2
2022/01/10 00:00:22;;;;;;;2.40;2.20;;;;;;;3.98;80.22;94689.28;4352503;32;20288;-59
2022/01/10 00:02:52;;;;;;;2.53;2.20;;;;;;;4.11;80.17;94688.75;4354958;32;20296;-60
2022/01/10 00:05:18;;;;;;;2.00;1.90;;;;;;;4.27;79.48;94691.31;4367177;32;20443;-60
2022/01/10 00:07:43;;;;;;;3.37;2.37;;;;;;;4.46;78.45;94687.81;4359531;32;20311;-59
2022/01/10 00:10:09;;;;;;;2.53;2.33;;;;;;;4.46;78.53;94692.25;4351036;32;20199;-59
2022/01/10 00:12:35;;;;;;;2.03;1.90;;;;;;;4.63;77.59;94686.66;4372550;32;20180;-60
2022/01/10 00:15:01;;;;;;;2.27;2.07;;;;;;;4.31;78.22;94690.50;4376697;32;20272;-60
2022/01/10 00:17:26;;;;;;;3.73;2.27;;;;;;;4.36;78.53;94685.25;4362235;32;20238;-59
2022/01/10 00:19:51;;;;;;;3.37;1.90;;;;;;;4.60;77.74;94693.22;4375187;32;20290;-59
2022/01/10 00:22:17;;;;;;;4.20;2.00;;;;;;;4.49;77.69;94695.13;4367739;32;20231;-59
2022/01/10 00:24:42;;;;;;;2.27;2.00;;;;;;;4.44;77.73;94694.38;4354165;32;20196;-60
2022/01/10 00:27:08;;;;;;;2.07;1.80;;;;;;;4.44;77.89;94689.91;4355118;32;20269;-59
2022/01/10 00:29:33;;;;;;;3.40;2.00;;;;;;;4.36;78.61;94689.69;4369711;32;20181;-60
2022/01/10 00:31:59;;;;;;;1.97;1.77;;;;;;;4.44;78.35;94691.75;4347582;32;20193;-59
2022/01/10 00:34:25;;;;;;;3.13;2.13;;;;;;;4.31;79.32;94692.34;4347086;32;20252;-59
2022/01/10 00:36:51;;;;;;;2.20;1.90;;;;;;;4.45;78.25;94685.44;4370639;32;20192;-60
2022/01/10 00:39:16;;;;;;;2.27;2.07;;;;;;;4.24;78.89;94689.22;4365118;32;20343;-60
2022/01/10 00:41:42;;;;;;;3.13;2.13;;;;;;;4.28;79.48;94688.41;4360765;32;20207;-59
2022/01/10 00:44:09;;;;;;;2.50;2.13;;;;;;;4.16;80.01;94680.03;4369762;32;20262;-60
2022/01/10 00:46:35;;;;;;;2.40;2.20;;;;;;;4.24;79.91;94678.72;4369984;32;20233;-60
2022/01/10 00:49:00;;;;;;;2.23;2.07;;;;;;;4.07;80.17;94679.81;4375012;32;20265;-59
2022/01/10 00:51:26;;;;;;;2.43;2.00;;;;;;;4.11;80.11;94680.87;4343555;32;20173;-60
2022/01/10 00:53:52;;;;;;;2.40;2.20;;;;;;;4.11;80.42;94686.13;4355174;32;20203;-59
2022/01/10 00:56:18;;;;;;;2.70;2.50;;;;;;;4.08;80.29;94689.28;4362250;32;20170;-61
2022/01/10 00:58:44;;;;;;;2.33;2.13;;;;;;;4.16;80.30;94692.41;4358967;32;20380;-59
2022/01/10 01:01:09;;;;;;;3.13;2.17;;;;;;;4.00;80.90;94694.28;4349448;32;20262;-60
2022/01/10 01:03:34;;;;;;;2.80;2.60;;;;;;;4.20;80.38;94693.41;4361356;32;20188;-60
2022/01/10 01:06:00;;;;;;;2.80;2.33;;;;;;;4.28;79.79;94696.28;4371036;32;20199;-59
2022/01/10 01:08:27;;;;;;;2.70;2.50;;;;;;;4.26;80.01;94702.84;4366928;32;20216;-59
2022/01/10 01:13:27;;;;;;;2.77;2.60;;;;;;;4.07;80.85;94707.91;4366318;32;20360;-60
2022/01/10 01:26:25;;;;;;;2.93;2.73;;;;;;;4.04;80.87;94738.09;4364723;32;20350;-59
2022/01/10 01:28:51;;;;;;;2.53;2.43;;;;;;;3.91;81.25;94735.25;4366683;32;20281;-59
2022/01/10 01:31:16;;;;;;;2.70;2.50;;;;;;;4.02;81.39;94742.03;4359870;32;20195;-59
2022/01/10 01:33:42;;;;;;;3.17;2.70;;;;;;;3.88;81.65;94749.69;4369826;32;20189;-59
2022/01/10 01:36:07;;;;;;;2.70;2.40;;;;;;;3.94;81.41;94746.00;4352735;32;23016;-59
2022/01/10 01:38:33;;;;;;;2.93;2.60;;;;;;;3.99;81.20;94755.69;4363630;32;20176;-59
2022/01/10 01:41:16;;;;;;;3.07;2.40;;;;;;;3.88;81.91;94769.88;4354670;32;20181;-59
2022/01/10 01:43:44;;;;;;;3.60;3.33;;;;;;;3.90;81.52;94758.06;4350265;32;20197;-59
2022/01/10 01:46:11;;;;;;;2.77;2.53;;;;;;;3.78;82.58;94762.78;4344375;32;20366;-59
2022/01/10 01:48:38;;;;;;;2.40;2.23;;;;;;;3.79;82.31;94767.78;4367563;32;20286;-59
2022/01/10 01:51:06;;;;;;;2.90;2.70;;;;;;;4.08;81.40;94775.88;4365712;32;20288;-60
2022/01/10 01:53:36;;;;;;;3.63;2.70;;;;;;;3.97;81.41;94774.31;4363209;32;20269;-59
2022/01/10 01:56:07;;;;;;;3.43;3.13;;;;;;;3.97;81.93;94774.31;4364420;32;20295;-59
2022/01/10 01:58:33;;;;;;;2.60;2.40;;;;;;;4.15;81.25;94772.97;4361855;32;20262;-59
2022/01/10 02:00:59;;;;;;;3.97;2.67;;;;;;;4.17;80.91;94777.94;4368886;32;20327;-59
2022/01/10 02:03:24;;;;;;;2.77;2.57;;;;;;;4.17;81.00;94777.94;4369782;32;20276;-59
2022/01/10 02:05:49;;;;;;;2.40;2.20;;;;;;;4.31;80.01;94773.72;4370216;32;20219;-59
2022/01/10 02:08:15;;;;;;;3.07;2.33;;;;;;;4.43;79.70;94777.59;4372751;32;20189;-59
2022/01/10 02:10:40;;;;;;;2.70;2.50;;;;;;;4.34;80.26;94778.44;4365106;32;20206;-59
2022/01/10 02:13:05;;;;;;;2.80;2.53;;;;;;;4.23;80.62;94782.13;4361550;32;20209;-59
2022/01/10 02:18:30;;;;;;;3.13;2.83;;;;;;;4.14;80.63;94795.81;4350414;32;20191;-59
2022/01/10 02:21:01;;;;;;;2.60;2.40;;;;;;;3.98;81.47;94796.88;4360920;32;20300;-59
2022/01/10 02:23:28;;;;;;;2.53;2.37;;;;;;;4.18;81.28;94795.25;4361668;32;20308;-59
2022/01/10 02:25:55;;;;;;;2.93;2.73;;;;;;;4.12;81.07;94807.62;4354128;32;20318;-59
2022/01/10 02:28:23;;;;;;;3.17;2.90;;;;;;;4.12;81.06;94812.88;4363240;32;20264;-60
2022/01/10 02:30:55;;;;;;;3.03;2.80;;;;;;;4.18;81.27;94811.00;4378067;32;20261;-60
2022/01/10 02:33:21;;;;;;;3.37;2.83;;;;;;;4.06;81.25;94814.72;4362531;32;20275;-60
2022/01/10 02:38:52;;;;;;;2.80;2.60;;;;;;;4.42;80.26;94812.00;4354051;32;20199;-59
2022/01/10 02:41:29;;;;;;;3.80;2.87;;;;;;;4.09;80.89;94824.69;4365743;32;20268;-60
2022/01/10 02:43:56;;;;;;;3.17;2.90;;;;;;;4.27;80.48;94830.44;4351681;32;20300;-59
2022/01/10 02:46:21;;;;;;;3.27;2.97;;;;;;;4.37;79.96;94830.41;4343975;32;20269;-60
2022/01/10 02:48:47;;;;;;;2.93;2.73;;;;;;;4.37;79.69;94830.41;4352306;32;20416;-59
2022/01/10 02:51:13;;;;;;;3.03;2.83;;;;;;;4.38;79.97;94839.84;4362913;32;20181;-60
2022/01/10 02:53:38;;;;;;;2.90;2.70;;;;;;;4.46;79.44;94839.31;4360770;32;20288;-60
2022/01/10 02:56:06;;;;;;;2.83;2.63;;;;;;;4.45;79.30;94837.75;4350457;32;20219;-60
2022/01/10 02:58:32;;;;;;;3.10;2.90;;;;;;;4.48;79.51;94837.22;4357106;32;20208;-59
2022/01/10 03:00:58;;;;;;;2.50;2.30;;;;;;;4.52;79.42;94840.87;4354487;32;20375;-59
2022/01/10 03:03:26;;;;;;;2.87;2.67;;;;;;;4.43;79.65;94852.97;4349253;32;20209;-59
2022/01/10 03:05:51;;;;;;;3.67;3.00;;;;;;;4.14;80.60;94858.03;4357654;32;20189;-60
2022/01/10 03:08:17;;;;;;;2.90;2.70;;;;;;;4.17;80.78;94856.69;4347211;32;20291;-59
2022/01/10 03:10:42;;;;;;;3.33;3.07;;;;;;;4.17;80.98;94854.06;4351011;32;20173;-59
2022/01/10 03:13:07;;;;;;;3.37;3.17;;;;;;;4.20;80.94;94856.94;4353410;32;20200;-59
2022/01/10 03:15:33;;;;;;;2.97;2.87;;;;;;;4.09;81.46;94861.44;4350207;32;20187;-58
2022/01/10 03:17:58;;;;;;;3.07;2.80;;;;;;;4.05;81.65;94855.13;4366813;32;20215;-59
2022/01/10 03:20:25;;;;;;;3.37;3.10;;;;;;;4.07;81.58;94863.53;4369569;32;20188;-59
2022/01/10 03:22:52;;;;;;;3.67;3.33;;;;;;;4.30;80.52;94856.94;4360125;32;20260;-60
2022/01/10 03:25:19;;;;;;;3.60;3.30;;;;;;;4.32;80.61;94870.59;4352635;32;20316;-59
2022/01/10 03:27:47;;;;;;;4.03;3.53;;;;;;;4.06;81.28;94872.44;4353532;32;20282;-60
2022/01/10 03:30:15;;;;;;;6.43;4.00;;;;;;;4.27;80.90;94878.47;4349568;32;20272;-59
2022/01/10 03:32:42;;;;;;;3.73;3.47;;;;;;;4.35;80.51;94877.16;4343652;32;20273;-59
2022/01/10 03:35:08;;;;;;;3.40;3.10;;;;;;;4.38;79.77;94885.28;4343891;32;20305;-60
2022/01/10 03:37:33;;;;;;;4.27;3.20;;;;;;;4.44;80.09;94884.22;4355053;32;20350;-61
2022/01/10 03:39:59;;;;;;;3.23;3.03;;;;;;;4.39;80.02;94880.81;4357890;32;20180;-59
2022/01/10 03:42:24;;;;;;;3.63;3.37;;;;;;;4.33;80.35;94882.66;4345539;32;20184;-59
2022/01/10 03:44:49;;;;;;;3.90;3.60;;;;;;;4.29;80.46;94893.97;4374139;32;20176;-59
2022/01/10 03:47:17;;;;;;;4.60;3.40;;;;;;;4.24;80.61;94888.72;4362011;32;20184;-59
2022/01/10 03:49:43;;;;;;;3.77;3.47;;;;;;;4.18;80.95;94893.16;4373378;32;20252;-59
2022/01/10 03:52:08;;;;;;;3.33;3.13;;;;;;;4.27;80.98;94896.06;4365959;32;20581;-59
2022/01/10 03:54:33;;;;;;;3.37;3.17;;;;;;;4.20;80.68;94893.69;4360841;32;20230;-60
2022/01/10 03:56:59;;;;;;;4.13;3.20;;;;;;;3.93;81.86;94901.84;4364704;32;20195;-59
2022/01/10 03:59:25;;;;;;;3.60;3.30;;;;;;;3.95;81.68;94907.59;4366559;32;20181;-59
2022/01/10 04:01:51;;;;;;;3.90;3.60;;;;;;;3.98;81.97;94901.03;4352229;32;20277;-60
2022/01/10 04:04:17;;;;;;;3.63;3.30;;;;;;;3.95;82.01;94897.09;4360308;32;20185;-59
2022/01/10 04:06:43;;;;;;;3.67;3.37;;;;;;;4.01;81.66;94906.56;4357777;32;20288;-60
2022/01/10 04:09:08;;;;;;;4.20;3.80;;;;;;;4.02;81.58;94909.97;4365535;32;22304;-60
2022/01/10 04:11:34;;;;;;;3.63;2.90;;;;;;;4.12;81.48;94910.78;4359051;32;20211;-60
2022/01/10 04:13:59;;;;;;;3.80;3.40;;;;;;;4.31;80.93;94910.25;4363502;32;20189;-60
2022/01/10 04:16:24;;;;;;;3.57;3.37;;;;;;;4.04;81.70;94921.78;4369927;32;20255;-60
2022/01/10 04:18:50;;;;;;;3.73;3.43;;;;;;;4.06;81.85;94914.44;4361713;32;20272;-60
2022/01/10 04:21:15;;;;;;;3.60;3.40;;;;;;;4.02;81.82;94923.88;4362123;32;20293;-59
2022/01/10 04:23:42;;;;;;;3.90;3.50;;;;;;;4.10;81.73;94930.44;4351312;32;20260;-60
2022/01/10 04:26:07;;;;;;;3.63;3.30;;;;;;;4.10;81.66;94923.38;4369548;32;20191;-60
2022/01/10 04:28:33;;;;;;;3.37;3.17;;;;;;;4.28;81.03;94935.19;4360016;32;20301;-60
2022/01/10 04:30:58;;;;;;;3.57;3.13;;;;;;;4.23;80.67;94929.12;4352364;32;20203;-60
2022/01/10 04:33:28;;;;;;;3.73;3.43;;;;;;;4.27;81.35;94933.59;4359377;32;20200;-60
2022/01/10 04:35:54;;;;;;;4.00;3.43;;;;;;;4.13;81.46;94935.97;4356678;32;20213;-59
2022/01/10 04:38:19;;;;;;;3.77;3.47;;;;;;;3.89;82.43;94947.22;4349164;32;20303;-60
2022/01/10 04:40:45;;;;;;;3.73;3.43;;;;;;;3.99;82.50;94948.00;4374280;32;20196;-59
2022/01/10 04:43:10;;;;;;;3.53;3.33;;;;;;;3.99;82.60;94950.63;4358251;32;20177;-60
2022/01/10 04:45:36;;;;;;;3.77;3.47;;;;;;;3.75;83.51;94952.16;4358278;32;20247;-59
2022/01/10 04:48:01;;;;;;;3.60;3.30;;;;;;;3.97;82.92;94954.56;4349184;32;20185;-59
2022/01/10 04:53:10;;;;;;;4.03;3.73;;;;;;;4.20;81.33;94969.03;4348209;32;20231;-59
2022/01/10 04:55:35;;;;;;;4.33;3.67;;;;;;;4.07;81.54;94971.13;4360495;32;20327;-60
2022/01/10 04:58:01;;;;;;;4.43;3.87;;;;;;;3.94;82.27;94979.50;4354288;32;20172;-60
2022/01/10 05:00:26;;;;;;;4.40;4.00;;;;;;;4.07;81.83;94973.75;4349659;32;20181;-60
2022/01/10 05:02:52;;;;;;;6.80;4.70;;;;;;;3.93;82.15;94979.78;4356025;32;20239;-60
2022/01/10 05:05:17;;;;;;;4.20;3.90;;;;;;;4.06;81.62;94979.25;4351960;32;20248;-59
2022/01/10 05:07:43;;;;;;;4.63;3.80;;;;;;;3.97;82.22;94992.09;4369434;32;20185;-60
2022/01/10 05:10:08;;;;;;;5.30;4.03;;;;;;;4.00;81.92;94983.69;4369427;32;20216;-59
2022/01/10 05:12:34;;;;;;;4.30;3.97;;;;;;;3.76;82.53;94991.25;4362125;32;20176;-59
2022/01/10 05:14:59;;;;;;;4.40;4.00;;;;;;;3.93;82.40;94992.87;4365211;32;20191;-59
2022/01/10 05:17:25;;;;;;;3.87;3.67;;;;;;;4.07;81.62;95002.63;4362990;32;20178;-59
2022/01/10 05:19:50;;;;;;;4.80;4.40;;;;;;;3.97;81.98;94999.97;4366099;32;20203;-59
2022/01/10 05:22:16;;;;;;;4.37;3.97;;;;;;;4.09;81.71;95003.16;4355267;32;20195;-59
2022/01/10 05:24:41;;;;;;;7.03;4.50;;;;;;;4.05;81.98;95004.72;4350747;32;20180;-58
2022/01/10 05:27:08;;;;;;;5.03;4.43;;;;;;;3.95;82.22;95006.53;4345911;32;20237;-60
2022/01/10 05:29:35;;;;;;;6.87;4.97;;;;;;;3.99;82.16;95013.63;4318386;32;20204;-59
2022/01/10 05:32:01;;;;;;;4.60;4.00;;;;;;;3.98;82.55;95017.28;4305849;32;20321;-59
2022/01/10 05:34:30;;;;;;;4.27;4.00;;;;;;;3.90;82.71;95015.19;4326890;32;20243;-59
2022/01/10 05:36:57;;;;;;;5.77;4.47;;;;;;;3.99;82.35;95015.44;4316804;33;20213;-60
2022/01/10 05:39:22;;;;;;;6.70;4.23;;;;;;;3.78;82.75;95031.13;4356731;32;20311;-60
2022/01/10 05:41:56;;;;;;;5.03;3.93;;;;;;;3.89;83.12;95031.97;4336217;32;20277;-59
2022/01/10 05:44:28;;;;;;;4.90;4.60;;;;;;;4.04;82.33;95029.38;4305691;32;20188;-60
2022/01/10 05:46:55;;;;;;;5.03;4.50;;;;;;;3.88;82.52;95035.62;4337883;32;20281;-61
2022/01/10 05:49:26;;;;;;;4.83;4.47;;;;;;;3.94;82.39;95036.44;4339625;32;20320;-60
2022/01/10 05:51:56;;;;;;;5.20;4.80;;;;;;;3.90;82.70;95041.41;4326662;32;20373;-60
2022/01/10 05:54:23;;;;;;;6.67;5.50;;;;;;;4.01;82.51;95045.63;4334268;32;20273;-60
2022/01/10 05:56:52;;;;;;;6.27;4.93;;;;;;;4.10;82.19;95046.72;4333273;32;20289;-59
2022/01/10 05:59:19;;;;;;;5.37;4.90;;;;;;;3.95;82.96;95049.28;4320442;32;20286;-60
2022/01/10 06:01:45;;;;;;;5.80;5.30;;;;;;;3.95;83.26;95053.78;4298848;32;20326;-59
2022/01/10 06:04:13;;;;;;;7.20;5.53;;;;;;;4.02;83.36;95062.97;4342461;32;20281;-60
2022/01/10 06:06:38;;;;;;;5.93;5.33;;;;;;;4.06;83.13;95071.91;4337477;32;20277;-60
2022/01/10 06:09:04;;;;;;;5.60;5.20;;;;;;;3.77;83.60;95071.53;4334861;32;20282;-60
2022/01/10 06:11:31;;;;;;;6.20;4.93;;;;;;;3.82;83.24;95083.09;4334349;32;20203;-59
2022/01/10 06:13:58;;;;;;;6.13;5.47;;;;;;;3.86;83.43;95084.16;4350932;32;20195;-60
2022/01/10 06:16:25;;;;;;;5.30;4.87;;;;;;;3.84;83.54;95084.41;4360326;32;20269;-60
2022/01/10 06:18:50;;;;;;;5.50;5.00;;;;;;;4.02;82.93;95091.03;4336366;32;20293;-64
2022/01/10 06:21:16;;;;;;;5.47;4.97;;;;;;;4.01;83.08;95092.87;4356158;32;20274;-60
2022/01/10 06:23:42;;;;;;;5.83;5.33;;;;;;;4.02;82.74;95091.81;4333431;32;20181;-60
2022/01/10 06:26:08;;;;;;;8.67;6.30;;;;;;;3.99;82.64;95094.97;4325038;32;20290;-60
2022/01/10 06:28:35;;;;;;;7.00;6.10;;;;;;;3.83;83.50;95105.66;4333236;32;20184;-60
2022/01/10 06:31:13;;;;;;;6.90;6.30;;;;;;;3.69;84.27;95107.97;4341325;32;20258;-60
2022/01/10 06:33:39;;;;;;;6.57;5.97;;;;;;;3.64;84.60;95115.81;4352847;32;20380;-60
2022/01/10 06:36:09;;;;;;;6.03;5.43;;;;;;;3.82;84.53;95122.44;4346676;32;20290;-59
2022/01/10 06:38:39;;;;;;;6.77;6.10;;;;;;;3.86;84.44;95119.06;4344028;32;20284;-60
2022/01/10 06:41:08;;;;;;;6.57;5.53;;;;;;;3.89;84.61;95126.41;4349435;32;20353;-60
2022/01/10 06:43:36;;;;;;;7.03;5.93;;;;;;;3.93;84.12;95138.00;4328214;32;20278;-59
2022/01/10 06:46:10;;;;;;;6.63;6.03;;;;;;;3.73;84.59;95143.13;4323706;32;20309;-59
2022/01/10 06:48:37;;;;;;;9.03;6.27;;;;;;;3.77;84.54;95146.81;4349487;32;20288;-59
2022/01/10 06:51:06;;;;;;;8.87;6.17;;;;;;;3.55;85.46;95143.53;4337910;32;20280;-59
2022/01/10 06:53:32;;;;;;;7.87;6.37;;;;;;;3.66;85.51;95156.47;4343838;32;20274;-59
2022/01/10 06:56:00;;;;;;;8.03;6.40;;;;;;;3.68;85.56;95154.37;4322599;32;20286;-59
2022/01/10 06:58:25;;;;;;;7.27;6.57;;;;;;;3.61;85.97;95156.44;4339843;32;20269;-60
2022/01/10 07:00:51;;;;;;;6.63;5.93;;;;;;;3.60;86.38;95167.97;4333226;32;20277;-61
2022/01/10 07:03:21;;;;;;;8.10;6.40;;;;;;;3.69;85.94;95161.22;4339442;32;20182;-60
2022/01/10 07:05:51;;;;;;;8.50;7.17;;;;;;;3.68;86.65;95179.81;4321175;32;20181;-59
2022/01/10 07:08:22;;;;;;;7.63;6.90;;;;;;;3.73;85.94;95172.78;4327472;32;20286;-59
2022/01/10 07:10:49;;;;;;;7.67;6.93;;;;;;;3.95;85.65;95179.72;4306987;32;20301;-60
2022/01/10 07:13:21;;;;;;;7.03;6.20;;;;;;;3.97;85.61;95183.63;4298348;32;20271;-59
2022/01/10 07:15:46;;;;;;;8.13;7.00;;;;;;;3.97;85.97;95190.72;4309668;32;20325;-60
2022/01/10 07:18:14;;;;;;;9.83;7.03;;;;;;;3.82;86.30;95201.94;4331427;32;20273;-60
2022/01/10 07:20:41;;;;;;;9.37;7.83;;;;;;;3.73;86.72;95195.59;4332202;32;20181;-59
2022/01/10 07:23:06;;;;;;;10.37;7.60;;;;;;;3.73;86.80;95203.47;4335144;32;20338;-59
2022/01/10 07:25:35;;;;;;;8.83;7.93;;;;;;;3.88;86.52;95200.94;4319966;32;20262;-60
2022/01/10 07:28:00;;;;;;;12.60;10.13;;;;;;;3.82;86.82;95215.06;4334045;32;20200;-59
2022/01/10 07:30:25;;;;;;;8.87;8.07;;;;;;;3.74;87.55;95220.78;4342468;32;20288;-60
2022/01/10 07:32:56;;;;;;;10.63;9.00;;;;;;;3.51;88.15;95216.69;4343473;32;20186;-63
2022/01/10 07:35:23;;;;;;;12.43;9.00;;;;;;;3.59;88.61;95225.91;4349634;32;20197;-60
2022/01/10 07:37:50;;;;;;;11.20;9.27;;;;;;;3.64;87.88;95232.00;4318598;32;20302;-60
2022/01/10 07:40:16;;;;;;;10.43;8.83;;;;;;;3.61;87.68;95236.94;4293160;32;20323;-59
2022/01/10 07:42:43;;;;;;;39.53;8.70;;;;;;;3.62;87.66;95244.56;4310625;32;20297;-60
2022/01/10 07:45:13;;;;;;;23.83;8.07;;;;;;;4.69;95.23;95248.56;4314129;32;20281;-60
2022/01/10 07:47:39;;;;;;;16.30;7.73;;;;;;;5.25;93.54;95250.50;4300110;32;20283;-59
2022/01/10 07:50:09;;;;;;;12.10;8.20;;;;;;;5.70;88.82;95257.66;4319522;32;20298;-60
2022/01/10 07:52:35;;;;;;;13.87;7.57;;;;;;;6.10;85.32;95256.84;4341390;32;20334;-60
2022/01/10 07:55:04;;;;;;;9.00;7.13;;;;;;;6.49;83.51;95265.69;4346374;32;20277;-60
2022/01/10 07:57:30;;;;;;;12.80;8.97;;;;;;;6.46;81.76;95265.44;4339984;32;20206;-60
2022/01/10 07:59:57;;;;;;;7.50;6.80;;;;;;;6.69;81.06;95274.59;4317416;32;20321;-60
2022/01/10 08:02:24;;;;;;;7.10;6.40;;;;;;;6.73;77.77;95275.63;4320868;32;20203;-62
2022/01/10 08:04:50;;;;;;;8.30;6.87;;;;;;;6.66;77.02;95277.75;4328488;32;20312;-60
2022/01/10 08:07:18;;;;;;;9.73;6.60;;;;;;;6.90;78.15;95284.00;4321331;32;20299;-60
2022/01/10 08:09:45;;;;;;;6.90;6.30;;;;;;;7.12;77.51;95284.41;4351350;32;20277;-60
2022/01/10 08:12:11;;;;;;;7.33;6.33;;;;;;;7.23;75.58;95287.81;4349292;32;20354;-60
2022/01/10 08:14:41;;;;;;;7.60;6.70;;;;;;;7.28;75.74;95293.03;4333486;32;20270;-59
2022/01/10 08:17:09;;;;;;;9.70;7.17;;;;;;;7.35;74.56;95300.66;4303824;32;20293;-60
2022/01/10 08:19:35;;;;;;;9.27;6.83;;;;;;;7.34;74.33;95299.84;4335646;32;20292;-60
2022/01/10 08:22:04;;;;;;;8.20;6.80;;;;;;;7.40;73.36;95301.41;4342070;32;20285;-60
2022/01/10 08:24:31;;;;;;;9.63;7.00;;;;;;;7.15;73.39;95301.56;4318724;32;20274;-60
2022/01/10 08:26:58;;;;;;;7.73;6.97;;;;;;;7.18;74.72;95308.94;4319280;33;20279;-60
2022/01/10 08:29:29;;;;;;;8.80;6.57;;;;;;;7.08;74.47;95312.38;4335081;32;20282;-59
2022/01/10 08:31:54;;;;;;;8.93;7.17;;;;;;;6.99;72.92;95321.16;4316395;32;20285;-60
2022/01/10 08:34:41;;;;;;;10.63;8.17;;;;;;;6.14;74.19;95327.16;4327118;32;20271;-59
2022/01/10 08:37:11;;;;;;;8.13;7.37;;;;;;;5.84;75.89;95321.84;4312462;32;20281;-59
2022/01/10 08:39:37;;;;;;;10.70;8.60;;;;;;;5.17;78.82;95328.87;4335503;32;20300;-59
2022/01/10 08:42:05;;;;;;;8.37;7.57;;;;;;;4.98;79.84;95342.75;4324585;32;20287;-59
2022/01/10 08:44:32;;;;;;;10.30;8.10;;;;;;;4.61;81.33;95340.97;4367690;32;20177;-59
2022/01/10 08:46:59;;;;;;;9.60;7.20;;;;;;;4.49;81.97;95343.81;4364199;32;20315;-59
2022/01/10 08:49:27;;;;;;;10.83;7.20;;;;;;;4.42;82.68;95350.31;4368542;32;20260;-63
2022/01/10 08:51:58;;;;;;;9.50;8.13;;;;;;;4.06;83.82;95357.19;4376547;32;20272;-59
2022/01/10 08:54:25;;;;;;;10.70;8.20;;;;;;;4.14;84.29;95357.50;4366279;32;20276;-64
2022/01/10 08:56:56;;;;;;;9.90;8.90;;;;;;;4.37;83.76;95356.34;4360539;32;20281;-59
2022/01/10 08:59:28;;;;;;;12.57;9.27;;;;;;;4.35;83.83;95361.06;4335179;32;20311;-59
2022/01/10 09:01:57;;;;;;;11.83;9.90;;;;;;;4.24;84.00;95371.75;4318795;32;20289;-59
2022/01/10 09:04:23;;;;;;;11.60;9.10;;;;;;;4.23;83.87;95380.66;4321047;32;20268;-62
2022/01/10 09:06:54;;;;;;;10.50;8.90;;;;;;;4.12;85.08;95383.22;4331397;32;20291;-63
2022/01/10 09:09:22;;;;;;;15.27;9.63;;;;;;;4.17;84.51;95381.66;4336772;32;20351;-63
2022/01/10 09:11:52;;;;;;;10.53;9.40;;;;;;;4.10;85.12;95384.50;4345263;32;20268;-63
2022/01/10 09:14:20;;;;;;;14.40;9.57;;;;;;;4.35;83.93;95397.03;4316908;32;20394;-62
2022/01/10 09:16:47;;;;;;;10.80;9.43;;;;;;;4.40;83.32;95397.06;4322266;32;20307;-62
2022/01/10 09:19:13;;;;;;;13.03;9.67;;;;;;;4.57;82.89;95395.09;4360466;32;20281;-63
2022/01/10 09:21:40;;;;;;;12.57;9.50;;;;;;;4.80;81.98;95401.78;4358503;32;20181;-63
2022/01/10 09:24:07;;;;;;;13.13;9.67;;;;;;;4.53;82.10;95399.25;4325107;32;20296;-63
2022/01/10 09:26:33;;;;;;;12.53;9.77;;;;;;;4.65;82.69;95409.56;4340246;32;20292;-61
2022/01/10 09:29:06;;;;;;;13.37;9.80;;;;;;;4.98;81.79;95409.25;4347168;32;20268;-61
2022/01/10 09:31:33;;;;;;;11.10;8.33;;;;;;;4.98;80.45;95404.00;4339912;32;20185;-61
2022/01/10 09:34:00;;;;;;;11.57;8.93;;;;;;;5.17;79.71;95412.22;4329836;32;20330;-62
2022/01/10 09:36:31;;;;;;;11.03;8.93;;;;;;;5.29;78.71;95420.69;4341132;32;20280;-61
2022/01/10 09:38:58;;;;;;;12.17;9.43;;;;;;;4.84;80.35;95429.91;4330024;32;20285;-63
2022/01/10 09:41:25;;;;;;;10.97;8.80;;;;;;;4.91;80.34;95428.91;4354579;32;20265;-62
2022/01/10 09:44:00;;;;;;;12.60;8.37;;;;;;;4.89;79.79;95434.41;4352057;32;20277;-62
2022/01/10 09:46:28;;;;;;;15.13;9.60;;;;;;;4.93;80.45;95440.75;4353378;32;20271;-62
2022/01/10 09:49:01;;;;;;;14.23;9.23;;;;;;;4.84;80.74;95434.38;4358404;32;20292;-61
2022/01/10 09:51:30;;;;;;;13.93;10.33;;;;;;;4.75;81.25;95436.72;4352900;32;20350;-61
2022/01/10 09:54:02;;;;;;;10.23;8.83;;;;;;;4.61;81.67;95451.31;4344186;32;20345;-62
2022/01/10 09:56:29;;;;;;;16.23;9.43;;;;;;;4.30;82.53;95460.00;4349159;32;20302;-64
2022/01/10 09:58:55;;;;;;;11.93;9.27;;;;;;;4.52;82.49;95458.09;4343787;32;20280;-64
2022/01/10 10:01:27;;;;;;;10.10;9.10;;;;;;;4.87;81.23;95462.00;4335288;32;20354;-63
2022/01/10 10:03:58;;;;;;;10.23;8.30;;;;;;;4.67;80.40;95463.44;4333910;32;20192;-62
2022/01/10 10:06:26;;;;;;;9.63;8.33;;;;;;;4.56;80.49;95463.63;4344035;32;20361;-64
2022/01/10 10:08:52;;;;;;;11.00;7.33;;;;;;;4.47;80.95;95456.22;4348473;32;20258;-62
2022/01/10 10:11:17;;;;;;;8.10;7.30;;;;;;;4.67;81.16;95460.03;4339445;32;20293;-64
2022/01/10 10:13:44;;;;;;;10.93;8.77;;;;;;;5.04;79.12;95460.00;4329640;32;20181;-61
2022/01/10 10:16:15;;;;;;;9.97;8.23;;;;;;;5.17;78.19;95459.56;4332415;32;20256;-61
2022/01/10 10:18:43;;;;;;;10.70;8.20;;;;;;;5.41;78.30;95459.91;4331412;32;20270;-60
2022/01/10 10:21:15;;;;;;;8.83;7.93;;;;;;;5.44;77.58;95475.97;4345026;32;20293;-60
2022/01/10 10:23:46;;;;;;;10.83;7.50;;;;;;;5.51;76.79;95473.09;4326680;32;20270;-62
2022/01/10 10:26:25;;;;;;;8.23;7.43;;;;;;;5.51;76.82;95471.28;4345511;32;20289;-60
2022/01/10 10:28:54;;;;;;;9.47;8.30;;;;;;;5.45;76.73;95477.56;4322247;32;20273;-61
2022/01/10 10:31:52;;;;;;;11.30;9.90;;;;;;;5.63;76.28;95484.19;4308821;32;20155;-61
2022/01/10 10:34:29;;;;;;;11.60;9.03;;;;;;;5.28;77.91;95484.06;4334880;32;20189;-61
2022/01/10 10:37:11;;;;;;;10.70;7.30;;;;;;;5.37;78.18;95485.94;4352879;32;20284;-64
2022/01/10 10:39:44;;;;;;;10.60;7.83;;;;;;;7.12;79.45;95492.00;4347413;32;20375;-62
2022/01/10 10:42:15;;;;;;;9.97;7.70;;;;;;;5.91;74.78;95488.28;4311468;32;20277;-62
2022/01/10 10:44:44;;;;;;;9.07;7.60;;;;;;;6.27;78.33;95496.25;4329506;32;20265;-63
2022/01/10 10:47:12;;;;;;;10.80;8.20;;;;;;;6.16;73.20;95509.41;4328415;32;20351;-61
2022/01/10 10:49:44;;;;;;;9.03;8.00;;;;;;;5.81;75.67;95501.38;4305904;32;20355;-62
2022/01/10 10:52:11;;;;;;;9.57;8.60;;;;;;;5.59;77.59;95503.41;4348699;32;20261;-62
2022/01/10 10:54:39;;;;;;;9.80;8.67;;;;;;;5.63;76.58;95515.78;4341832;32;20265;-61
2022/01/10 10:57:06;;;;;;;10.83;9.07;;;;;;;5.32;78.38;95519.31;4358953;32;20287;-63
2022/01/10 10:59:36;;;;;;;13.57;8.17;;;;;;;5.59;77.96;95517.34;4319656;32;20273;-61
2022/01/10 11:02:05;;;;;;;9.80;7.80;;;;;;;5.50;77.30;95527.56;4346715;32;20273;-62
2022/01/10 11:04:31;;;;;;;9.57;7.47;;;;;;;5.60;76.96;95529.47;4309062;32;20275;-62
2022/01/10 11:06:57;;;;;;;9.00;7.97;;;;;;;5.65;75.80;95531.31;4339821;32;20344;-59
2022/01/10 11:09:26;;;;;;;12.43;8.00;;;;;;;5.28;77.12;95537.44;4369614;32;20265;-59
2022/01/10 11:11:52;;;;;;;11.07;8.63;;;;;;;5.13;77.97;95542.63;4346993;32;20277;-59
2022/01/10 11:14:22;;;;;;;15.40;9.47;;;;;;;5.12;78.52;95538.41;4355960;32;20387;-59
2022/01/10 11:16:52;;;;;;;10.30;9.27;;;;;;;5.00;79.15;95549.06;4328173;32;20277;-59
2022/01/10 11:19:26;;;;;;;11.33;9.53;;;;;;;4.72;80.15;95560.72;4345384;32;20358;-59
2022/01/10 11:22:09;;;;;;;11.87;10.50;;;;;;;4.62;81.64;95562.44;4347989;32;20272;-60
2022/01/10 11:24:48;;;;;;;14.37;10.20;;;;;;;4.70;80.89;95568.03;4350574;32;20273;-60
2022/01/10 11:27:35;;;;;;;12.30;9.70;;;;;;;4.42;81.78;95568.31;4373986;32;20374;-59
2022/01/10 11:30:31;;;;;;;10.60;9.37;;;;;;;4.57;81.77;95571.09;4358487;32;20307;-60
2022/01/10 11:33:07;;;;;;;13.77;10.57;;;;;;;4.44;81.93;95576.72;4324335;32;20296;-63
2022/01/10 11:35:54;;;;;;;12.63;10.57;;;;;;;4.39;82.63;95579.28;4346861;32;20273;-60
2022/01/10 11:38:39;;;;;;;10.73;9.67;;;;;;;4.51;82.48;95576.53;4366355;32;20277;-60
2022/01/10 11:41:25;;;;;;;11.97;10.77;;;;;;;4.63;81.85;95575.31;4341353;32;20285;-59
2022/01/10 11:43:53;;;;;;;13.03;9.90;;;;;;;4.61;82.07;95581.88;4366371;32;20281;-60
2022/01/10 11:46:39;;;;;;;11.80;9.90;;;;;;;4.79;81.01;95582.28;4367819;32;20341;-60
2022/01/10 11:49:13;;;;;;;9.83;8.90;;;;;;;5.01;80.88;95581.41;4348025;32;20281;-60
2022/01/10 11:51:54;;;;;;;12.33;8.67;;;;;;;5.10;79.64;95582.56;4338504;32;20272;-60
2022/01/10 11:54:26;;;;;;;10.27;9.27;;;;;;;5.23;80.01;95578.69;4319786;32;20269;-59
2022/01/10 11:56:57;;;;;;;12.20;10.13;;;;;;;5.20;78.47;95585.25;4352383;32;20285;-59
2022/01/10 11:59:46;;;;;;;10.53;9.33;;;;;;;4.96;79.60;95587.44;4364964;32;20327;-59
2022/01/10 12:02:25;;;;;;;10.20;8.40;;;;;;;5.16;79.07;95584.19;4364104;32;20265;-59
2022/01/10 12:04:57;;;;;;;12.40;9.67;;;;;;;5.28;78.39;95587.41;4345129;32;20274;-59